Buoy 16555

sailwx.info

Track history (hours):
 
Tides and Currents Weather Stations Pressure Air Temp Water Temp Dewpoint Dewpoint Depression Visibility Wind Speed Wind Dir Waves Ship Positions

Drifting buoy 16555

Last reported at 2017-Feb-27 01:00 UTC. Time now 2017-Feb-27 02:07 UTC.
Position S 26°13' E 088°59'.

Barometer 1018.7 mb
Water temperature 24.1 ° C

Date/timePositionNaut miles runAvg speedWind from/ knotsBaromVisibWave heightAir tempDewpointWater temp
2017-Feb-27 01:00S 26°13' E 088°59'0 0.0 1018.7 24.1
2017-Feb-27 00:00S 26°13' E 088°59'2 1.6 1017.9 24.1
2017-Feb-26 23:00S 26°12' E 088°58'0 0.0 1017.5 24.2
2017-Feb-26 22:00S 26°12' E 088°58'1 0.1 1017.5 24.2
2017-Feb-26 16:00S 26°11' E 088°58'0 0.0 1018.4 24.4
2017-Feb-26 15:00S 26°11' E 088°58'0 0.0 1018.1 24.5
2017-Feb-26 13:00S 26°11' E 088°58'1 0.5 1016.8 24.7
2017-Feb-26 12:00S 26°11' E 088°58'0 0.0 1016.5 24.7
2017-Feb-26 11:00S 26°11' E 088°58'1 1.1 1016.0 24.7
2017-Feb-26 10:00S 26°11' E 088°56'2 2.1 1016.1 24.6
2017-Feb-26 09:00S 26°10' E 088°55'0 0.0 1016.3 24.8
2017-Feb-26 04:00S 26°10' E 088°55'1 0.8 1019.1 24.5
2017-Feb-26 03:00S 26°09' E 088°55'1 0.7 1019.0 24.4
2017-Feb-26 01:00S 26°08' E 088°55'1 0.4 1018.2 24.3
2017-Feb-25 22:00S 26°07' E 088°54'1 0.6 1017.1 24.4
2017-Feb-25 21:00S 26°07' E 088°54'3 0.7 1017.4 24.4
2017-Feb-25 17:00S 26°04' E 088°53'0 0.0 1019.7 24.6
2017-Feb-25 16:00S 26°04' E 088°53'1 1.2 1020.1 24.7
2017-Feb-25 15:00S 26°03' E 088°53'1 0.8 1019.9 24.8
2017-Feb-25 14:00S 26°02' E 088°52'0 0.0 1019.6 24.8
2017-Feb-25 13:00S 26°02' E 088°52'1 0.6 1018.9 24.7
2017-Feb-25 12:00S 26°02' E 088°52'1 0.5 1018.5 24.8
2017-Feb-25 11:00S 26°02' E 088°52'1 1.2 1018.3 24.9
2017-Feb-25 10:00S 26°01' E 088°50'3 3.5 1018.4 24.8
2017-Feb-25 09:00S 26°00' E 088°47'0 0.0 1018.7 24.8
2017-Feb-25 04:00S 26°00' E 088°47'0 0.0 1020.9 24.3
2017-Feb-25 03:00S 26°00' E 088°47'2 1.6 1020.9 24.2
2017-Feb-25 02:00S 25°59' E 088°46'2 1.7 1021.0 24.1
2017-Feb-25 01:00S 25°58' E 088°44'0 0.0 1020.8 24.1
2017-Feb-25 00:00S 25°58' E 088°44'3 3.2 1020.3 24.2
2017-Feb-24 23:00S 25°56' E 088°41'0 0.0 1020.0 24.2
2017-Feb-24 22:00S 25°56' E 088°41'0 0.0 1019.8 24.2
2017-Feb-24 21:00S 25°56' E 088°41'1 0.2 1019.9 24.3
2017-Feb-24 17:00S 25°55' E 088°41'1 0.5 1021.1 24.4
2017-Feb-24 16:00S 25°55' E 088°40'0 0.0 1021.3 24.4
2017-Feb-24 15:00S 25°55' E 088°40'1 1.1 1021.0 24.5
2017-Feb-24 14:00S 25°55' E 088°39'0 0.0 1020.2 24.5
2017-Feb-24 13:00S 25°55' E 088°39'0 0.0 1019.4 24.5
2017-Feb-24 12:00S 25°55' E 088°39'2 2.5 1018.9 24.6
2017-Feb-24 11:00S 25°56' E 088°37'0 0.0 1018.4 24.6
2017-Feb-24 10:00S 25°56' E 088°37'5 5.4 1018.6 24.6
2017-Feb-24 09:00S 25°56' E 088°31'0 0.0 1018.6 24.6
2017-Feb-24 04:00S 25°56' E 088°31'1 1.1 1021.5 24.1
2017-Feb-24 03:00S 25°56' E 088°29'2 0.8 1021.3 24.0
2017-Feb-24 01:00S 25°56' E 088°28'0 0.0 1020.4 23.9
2017-Feb-24 00:00S 25°56' E 088°28'0 0.0 1019.6 23.9
2017-Feb-23 23:00S 25°56' E 088°28'1 0.6 1019.3 24.0
2017-Feb-23 21:00S 25°56' E 088°26'5 0.9 1019.2 24.0
2017-Feb-23 16:00S 25°58' E 088°22'1 0.5 1020.2 24.0
2017-Feb-23 15:00S 25°58' E 088°22'1 1.2 1019.9 24.0
2017-Feb-23 14:00S 25°59' E 088°21'0 0.0 1019.7 24.0
2017-Feb-23 13:00S 25°59' E 088°21'1 1.2 1019.1 24.1
2017-Feb-23 12:00S 26°00' E 088°21'1 0.8 1018.7 24.2
2017-Feb-23 11:00S 26°01' E 088°20'5 2.7 1018.4 24.2
2017-Feb-23 09:00S 26°03' E 088°15'0 0.0 1018.5 24.1
2017-Feb-23 07:00S 26°03' E 088°15'2 0.3 1019.4 24.0
2017-Feb-23 01:00S 26°04' E 088°14'2 0.9 1019.4 23.7
2017-Feb-22 23:00S 26°05' E 088°12'2 1.7 1018.6 23.7
2017-Feb-22 22:00S 26°05' E 088°10'0 0.0 1018.3 23.7
2017-Feb-22 20:00S 26°05' E 088°10'2 1.2 1019.1 23.8
2017-Feb-22 18:00S 26°07' E 088°08'1 0.4 1019.9 23.8
2017-Feb-22 16:00S 26°08' E 088°08'2 0.8 1020.5 23.9
2017-Feb-22 13:00S 26°10' E 088°07'0 0.0 1019.9 24.1
2017-Feb-22 12:00S 26°10' E 088°07'2 1.6 1019.6 24.2
2017-Feb-22 11:00S 26°11' E 088°06'0 0.0 1019.5 24.3
2017-Feb-22 09:00S 26°11' E 088°06'5 1.0 1020.0 24.3
2017-Feb-22 04:00S 26°14' E 088°02'1 0.8 1022.5 23.8
2017-Feb-22 03:00S 26°15' E 088°01'1 1.2 1022.6 23.8
2017-Feb-22 02:00S 26°14' E 088°02'1 1.2 1022.3 23.8
2017-Feb-22 01:00S 26°15' E 088°01'3 2.9 1022.1 23.8
2017-Feb-22 00:00S 26°16' E 087°58'1 0.2 1021.8 23.8
2017-Feb-21 20:00S 26°17' E 087°58'1 0.1 1021.4 23.9
2017-Feb-21 16:00S 26°17' E 087°57'2 1.6 1023.2 23.9
2017-Feb-21 15:00S 26°18' E 087°56'2 0.8 1023.2 24.0
2017-Feb-21 12:00S 26°19' E 087°53'3 1.5 1022.2 24.0
2017-Feb-21 10:00S 26°20' E 087°50'0 0.0 1022.1 24.1
2017-Feb-21 09:00S 26°20' E 087°50'0 0.0 1022.4 24.1
2017-Feb-21 08:00S 26°20' E 087°50'4 0.8 1022.8 24.0
2017-Feb-21 03:00S 26°22' E 087°46'3 1.6 1024.8 23.9
2017-Feb-21 01:00S 26°24' E 087°43'1 1.2 1024.0 24.0
2017-Feb-21 00:00S 26°25' E 087°42'0 0.0 1023.8 24.0
2017-Feb-20 23:00S 26°25' E 087°42'3 1.4 1023.7 24.0
2017-Feb-20 21:00S 26°25' E 087°39'2 2.0 1023.9 24.0
2017-Feb-20 20:00S 26°26' E 087°37'4 1.2 1024.1 24.0
2017-Feb-20 17:00S 26°28' E 087°34'1 1.2 1024.7 24.0
2017-Feb-20 16:00S 26°29' E 087°32'5 1.7 1024.8 24.0
2017-Feb-20 13:00S 26°32' E 087°28'2 2.1 1023.9 24.0
2017-Feb-20 12:00S 26°34' E 087°26'1 0.4 1023.5 24.1
2017-Feb-20 10:00S 26°34' E 087°26'2 2.0 1023.0 23.9
2017-Feb-20 09:00S 26°35' E 087°24'6 0.9 1023.0 23.7
2017-Feb-20 03:00S 26°40' E 087°20'3 1.6 1024.9 23.6
2017-Feb-20 01:00S 26°42' E 087°17'1 1.3 1024.3 23.7
2017-Feb-20 00:00S 26°43' E 087°17'0 0.0 1024.1 23.6
2017-Feb-19 23:00S 26°43' E 087°17'2 1.0 1023.6 23.6
2017-Feb-19 21:00S 26°45' E 087°16'2 2.1 1023.8 23.6
2017-Feb-19 20:00S 26°47' E 087°14'5 1.2 1024.2 23.6
2017-Feb-19 16:00S 26°51' E 087°11'1 0.6 1025.4 23.6
2017-Feb-19 15:00S 26°52' E 087°11'1 0.6 1025.0 23.7
2017-Feb-19 14:00S 26°52' E 087°11'1 1.2 1024.7 23.7
2017-Feb-19 13:00S 26°53' E 087°10'2 2.1 1024.3 23.7
2017-Feb-19 12:00S 26°55' E 087°09'2 1.2 1023.5 23.8
2017-Feb-19 10:00S 26°56' E 087°07'0 0.0 1023.3 23.8
2017-Feb-19 09:00S 26°56' E 087°07'4 0.8 1023.4 23.8
2017-Feb-19 04:00S 27°00' E 087°05'2 1.6 1024.3 23.7
2017-Feb-19 03:00S 27°01' E 087°04'1 0.8 1024.4 23.7
2017-Feb-19 02:00S 27°02' E 087°04'1 0.6 1024.1 23.7
2017-Feb-19 01:00S 27°02' E 087°04'0 0.0 1023.9 23.7
2017-Feb-19 00:00S 27°02' E 087°04'3 1.1 1023.4 23.7
2017-Feb-18 21:00S 27°05' E 087°02'0 0.0 1022.3 23.9
2017-Feb-18 20:00S 27°05' E 087°02'4 0.9 1022.5 23.9
2017-Feb-18 16:00S 27°09' E 087°01'1 0.5 1022.9 24.2
2017-Feb-18 15:00S 27°09' E 087°01'1 1.3 1022.5 24.4
2017-Feb-18 14:00S 27°10' E 087°01'1 1.3 1022.0 24.6
2017-Feb-18 13:00S 27°11' E 087°00'0 0.0 1021.5 24.7
2017-Feb-18 12:00S 27°11' E 087°00'1 0.6 1021.1 25.0
2017-Feb-18 11:00S 27°12' E 087°00'1 0.6 1020.6 25.3
2017-Feb-18 10:00S 27°13' E 087°00'2 1.6 1020.4 25.5
2017-Feb-18 09:00S 27°14' E 086°59'3 2.6 1020.5 25.6
2017-Feb-18 08:00S 27°16' E 086°58'0 0.0 1020.7 25.4
2017-Feb-18 04:00S 27°16' E 086°58'1 0.8 1020.6 23.9
2017-Feb-18 03:00S 27°17' E 086°57'0 0.0 1020.1 23.8
2017-Feb-18 02:00S 27°17' E 086°57'1 0.8 1019.6 23.7
2017-Feb-18 01:00S 27°17' E 086°56'0 0.0 1019.1 23.7
2017-Feb-18 00:00S 27°17' E 086°56'1 1.2 1018.3 23.7
2017-Feb-17 23:00S 27°19' E 086°56'1 0.8 1017.8 23.7
2017-Feb-17 22:00S 27°18' E 086°56'1 1.2 1017.4 23.7
2017-Feb-17 21:00S 27°19' E 086°56'0 0.0 1017.5 23.7
2017-Feb-17 20:00S 27°19' E 086°56'2 0.8 1017.5 23.8
2017-Feb-17 17:00S 27°22' E 086°55'1 0.8 1017.9 23.9
2017-Feb-17 16:00S 27°22' E 086°55'1 1.2 1017.6 24.0
2017-Feb-17 15:00S 27°23' E 086°55'2 0.9 1017.1 24.2
2017-Feb-17 13:00S 27°24' E 086°53'3 0.9 1015.7 24.6
2017-Feb-17 10:00S 27°26' E 086°52'3 0.5 1015.2 24.6
2017-Feb-17 04:00S 27°28' E 086°49'1 0.6 1016.7 23.4
2017-Feb-17 03:00S 27°29' E 086°49'1 1.3 1016.8 23.3
2017-Feb-17 02:00S 27°30' E 086°49'0 0.0 1016.7 23.3
2017-Feb-17 01:00S 27°30' E 086°49'   1016.4 23.3
Track history (hours):
 
Tides and Currents Weather Stations Pressure Air Temp Water Temp Dewpoint Dewpoint Depression Visibility Wind Speed Wind Dir Waves Ship Positions

Drifting buoy 16555

Last reported at 2017-Feb-27 01:00 UTC. Time now 2017-Feb-27 02:07 UTC.
Position S 26°13' E 088°59'.

Barometer 1018.7 mb
Water temperature 24.1 ° C

Date/timePositionNaut miles runAvg speedWind from/ knotsBaromVisibWave heightAir tempDewpointWater temp
2017-Feb-27 01:00S 26°13' E 088°59'0 0.0 1018.7 24.1
2017-Feb-27 00:00S 26°13' E 088°59'2 1.6 1017.9 24.1
2017-Feb-26 23:00S 26°12' E 088°58'0 0.0 1017.5 24.2
2017-Feb-26 22:00S 26°12' E 088°58'1 0.1 1017.5 24.2
2017-Feb-26 16:00S 26°11' E 088°58'0 0.0 1018.4 24.4
2017-Feb-26 15:00S 26°11' E 088°58'0 0.0 1018.1 24.5
2017-Feb-26 13:00S 26°11' E 088°58'1 0.5 1016.8 24.7
2017-Feb-26 12:00S 26°11' E 088°58'0 0.0 1016.5 24.7
2017-Feb-26 11:00S 26°11' E 088°58'1 1.1 1016.0 24.7
2017-Feb-26 10:00S 26°11' E 088°56'2 2.1 1016.1 24.6
2017-Feb-26 09:00S 26°10' E 088°55'0 0.0 1016.3 24.8
2017-Feb-26 04:00S 26°10' E 088°55'1 0.8 1019.1 24.5
2017-Feb-26 03:00S 26°09' E 088°55'1 0.7 1019.0 24.4
2017-Feb-26 01:00S 26°08' E 088°55'1 0.4 1018.2 24.3
2017-Feb-25 22:00S 26°07' E 088°54'1 0.6 1017.1 24.4
2017-Feb-25 21:00S 26°07' E 088°54'3 0.7 1017.4 24.4
2017-Feb-25 17:00S 26°04' E 088°53'0 0.0 1019.7 24.6
2017-Feb-25 16:00S 26°04' E 088°53'1 1.2 1020.1 24.7
2017-Feb-25 15:00S 26°03' E 088°53'1 0.8 1019.9 24.8
2017-Feb-25 14:00S 26°02' E 088°52'0 0.0 1019.6 24.8
2017-Feb-25 13:00S 26°02' E 088°52'1 0.6 1018.9 24.7
2017-Feb-25 12:00S 26°02' E 088°52'1 0.5 1018.5 24.8
2017-Feb-25 11:00S 26°02' E 088°52'1 1.2 1018.3 24.9
2017-Feb-25 10:00S 26°01' E 088°50'3 3.5 1018.4 24.8
2017-Feb-25 09:00S 26°00' E 088°47'0 0.0 1018.7 24.8
2017-Feb-25 04:00S 26°00' E 088°47'0 0.0 1020.9 24.3
2017-Feb-25 03:00S 26°00' E 088°47'2 1.6 1020.9 24.2
2017-Feb-25 02:00S 25°59' E 088°46'2 1.7 1021.0 24.1
2017-Feb-25 01:00S 25°58' E 088°44'0 0.0 1020.8 24.1
2017-Feb-25 00:00S 25°58' E 088°44'3 3.2 1020.3 24.2
2017-Feb-24 23:00S 25°56' E 088°41'0 0.0 1020.0 24.2
2017-Feb-24 22:00S 25°56' E 088°41'0 0.0 1019.8 24.2
2017-Feb-24 21:00S 25°56' E 088°41'1 0.2 1019.9 24.3
2017-Feb-24 17:00S 25°55' E 088°41'1 0.5 1021.1 24.4
2017-Feb-24 16:00S 25°55' E 088°40'0 0.0 1021.3 24.4
2017-Feb-24 15:00S 25°55' E 088°40'1 1.1 1021.0 24.5
2017-Feb-24 14:00S 25°55' E 088°39'0 0.0 1020.2 24.5
2017-Feb-24 13:00S 25°55' E 088°39'0 0.0 1019.4 24.5
2017-Feb-24 12:00S 25°55' E 088°39'2 2.5 1018.9 24.6
2017-Feb-24 11:00S 25°56' E 088°37'0 0.0 1018.4 24.6
2017-Feb-24 10:00S 25°56' E 088°37'5 5.4 1018.6 24.6
2017-Feb-24 09:00S 25°56' E 088°31'0 0.0 1018.6 24.6
2017-Feb-24 04:00S 25°56' E 088°31'1 1.1 1021.5 24.1
2017-Feb-24 03:00S 25°56' E 088°29'2 0.8 1021.3 24.0
2017-Feb-24 01:00S 25°56' E 088°28'0 0.0 1020.4 23.9
2017-Feb-24 00:00S 25°56' E 088°28'0 0.0 1019.6 23.9
2017-Feb-23 23:00S 25°56' E 088°28'1 0.6 1019.3 24.0
2017-Feb-23 21:00S 25°56' E 088°26'5 0.9 1019.2 24.0
2017-Feb-23 16:00S 25°58' E 088°22'1 0.5 1020.2 24.0
2017-Feb-23 15:00S 25°58' E 088°22'1 1.2 1019.9 24.0
2017-Feb-23 14:00S 25°59' E 088°21'0 0.0 1019.7 24.0
2017-Feb-23 13:00S 25°59' E 088°21'1 1.2 1019.1 24.1
2017-Feb-23 12:00S 26°00' E 088°21'1 0.8 1018.7 24.2
2017-Feb-23 11:00S 26°01' E 088°20'5 2.7 1018.4 24.2
2017-Feb-23 09:00S 26°03' E 088°15'0 0.0 1018.5 24.1
2017-Feb-23 07:00S 26°03' E 088°15'2 0.3 1019.4 24.0
2017-Feb-23 01:00S 26°04' E 088°14'2 0.9 1019.4 23.7
2017-Feb-22 23:00S 26°05' E 088°12'2 1.7 1018.6 23.7
2017-Feb-22 22:00S 26°05' E 088°10'0 0.0 1018.3 23.7
2017-Feb-22 20:00S 26°05' E 088°10'2 1.2 1019.1 23.8
2017-Feb-22 18:00S 26°07' E 088°08'1 0.4 1019.9 23.8
2017-Feb-22 16:00S 26°08' E 088°08'2 0.8 1020.5 23.9
2017-Feb-22 13:00S 26°10' E 088°07'0 0.0 1019.9 24.1
2017-Feb-22 12:00S 26°10' E 088°07'2 1.6 1019.6 24.2
2017-Feb-22 11:00S 26°11' E 088°06'0 0.0 1019.5 24.3
2017-Feb-22 09:00S 26°11' E 088°06'5 1.0 1020.0 24.3
2017-Feb-22 04:00S 26°14' E 088°02'1 0.8 1022.5 23.8
2017-Feb-22 03:00S 26°15' E 088°01'1 1.2 1022.6 23.8
2017-Feb-22 02:00S 26°14' E 088°02'1 1.2 1022.3 23.8
2017-Feb-22 01:00S 26°15' E 088°01'3 2.9 1022.1 23.8
2017-Feb-22 00:00S 26°16' E 087°58'1 0.2 1021.8 23.8
2017-Feb-21 20:00S 26°17' E 087°58'1 0.1 1021.4 23.9
2017-Feb-21 16:00S 26°17' E 087°57'2 1.6 1023.2 23.9
2017-Feb-21 15:00S 26°18' E 087°56'2 0.8 1023.2 24.0
2017-Feb-21 12:00S 26°19' E 087°53'3 1.5 1022.2 24.0
2017-Feb-21 10:00S 26°20' E 087°50'0 0.0 1022.1 24.1
2017-Feb-21 09:00S 26°20' E 087°50'0 0.0 1022.4 24.1
2017-Feb-21 08:00S 26°20' E 087°50'4 0.8 1022.8 24.0
2017-Feb-21 03:00S 26°22' E 087°46'3 1.6 1024.8 23.9
2017-Feb-21 01:00S 26°24' E 087°43'1 1.2 1024.0 24.0
2017-Feb-21 00:00S 26°25' E 087°42'0 0.0 1023.8 24.0
2017-Feb-20 23:00S 26°25' E 087°42'3 1.4 1023.7 24.0
2017-Feb-20 21:00S 26°25' E 087°39'2 2.0 1023.9 24.0
2017-Feb-20 20:00S 26°26' E 087°37'4 1.2 1024.1 24.0
2017-Feb-20 17:00S 26°28' E 087°34'1 1.2 1024.7 24.0
2017-Feb-20 16:00S 26°29' E 087°32'5 1.7 1024.8 24.0
2017-Feb-20 13:00S 26°32' E 087°28'2 2.1 1023.9 24.0
2017-Feb-20 12:00S 26°34' E 087°26'1 0.4 1023.5 24.1
2017-Feb-20 10:00S 26°34' E 087°26'2 2.0 1023.0 23.9
2017-Feb-20 09:00S 26°35' E 087°24'6 0.9 1023.0 23.7
2017-Feb-20 03:00S 26°40' E 087°20'3 1.6 1024.9 23.6
2017-Feb-20 01:00S 26°42' E 087°17'1 1.3 1024.3 23.7
2017-Feb-20 00:00S 26°43' E 087°17'0 0.0 1024.1 23.6
2017-Feb-19 23:00S 26°43' E 087°17'2 1.0 1023.6 23.6
2017-Feb-19 21:00S 26°45' E 087°16'2 2.1 1023.8 23.6
2017-Feb-19 20:00S 26°47' E 087°14'5 1.2 1024.2 23.6
2017-Feb-19 16:00S 26°51' E 087°11'1 0.6 1025.4 23.6
2017-Feb-19 15:00S 26°52' E 087°11'1 0.6 1025.0 23.7
2017-Feb-19 14:00S 26°52' E 087°11'1 1.2 1024.7 23.7
2017-Feb-19 13:00S 26°53' E 087°10'2 2.1 1024.3 23.7
2017-Feb-19 12:00S 26°55' E 087°09'2 1.2 1023.5 23.8
2017-Feb-19 10:00S 26°56' E 087°07'0 0.0 1023.3 23.8
2017-Feb-19 09:00S 26°56' E 087°07'4 0.8 1023.4 23.8
2017-Feb-19 04:00S 27°00' E 087°05'2 1.6 1024.3 23.7
2017-Feb-19 03:00S 27°01' E 087°04'1 0.8 1024.4 23.7
2017-Feb-19 02:00S 27°02' E 087°04'1 0.6 1024.1 23.7
2017-Feb-19 01:00S 27°02' E 087°04'0 0.0 1023.9 23.7
2017-Feb-19 00:00S 27°02' E 087°04'3 1.1 1023.4 23.7
2017-Feb-18 21:00S 27°05' E 087°02'0 0.0 1022.3 23.9
2017-Feb-18 20:00S 27°05' E 087°02'4 0.9 1022.5 23.9
2017-Feb-18 16:00S 27°09' E 087°01'1 0.5 1022.9 24.2
2017-Feb-18 15:00S 27°09' E 087°01'1 1.3 1022.5 24.4
2017-Feb-18 14:00S 27°10' E 087°01'1 1.3 1022.0 24.6
2017-Feb-18 13:00S 27°11' E 087°00'0 0.0 1021.5 24.7
2017-Feb-18 12:00S 27°11' E 087°00'1 0.6 1021.1 25.0
2017-Feb-18 11:00S 27°12' E 087°00'1 0.6 1020.6 25.3
2017-Feb-18 10:00S 27°13' E 087°00'2 1.6 1020.4 25.5
2017-Feb-18 09:00S 27°14' E 086°59'3 2.6 1020.5 25.6
2017-Feb-18 08:00S 27°16' E 086°58'0 0.0 1020.7 25.4
2017-Feb-18 04:00S 27°16' E 086°58'1 0.8 1020.6 23.9
2017-Feb-18 03:00S 27°17' E 086°57'0 0.0 1020.1 23.8
2017-Feb-18 02:00S 27°17' E 086°57'1 0.8 1019.6 23.7
2017-Feb-18 01:00S 27°17' E 086°56'0 0.0 1019.1 23.7
2017-Feb-18 00:00S 27°17' E 086°56'1 1.2 1018.3 23.7
2017-Feb-17 23:00S 27°19' E 086°56'1 0.8 1017.8 23.7
2017-Feb-17 22:00S 27°18' E 086°56'1 1.2 1017.4 23.7
2017-Feb-17 21:00S 27°19' E 086°56'0 0.0 1017.5 23.7
2017-Feb-17 20:00S 27°19' E 086°56'2 0.8 1017.5 23.8
2017-Feb-17 17:00S 27°22' E 086°55'1 0.8 1017.9 23.9
2017-Feb-17 16:00S 27°22' E 086°55'1 1.2 1017.6 24.0
2017-Feb-17 15:00S 27°23' E 086°55'2 0.9 1017.1 24.2
2017-Feb-17 13:00S 27°24' E 086°53'3 0.9 1015.7 24.6
2017-Feb-17 10:00S 27°26' E 086°52'3 0.5 1015.2 24.6
2017-Feb-17 04:00S 27°28' E 086°49'1 0.6 1016.7 23.4
2017-Feb-17 03:00S 27°29' E 086°49'1 1.3 1016.8 23.3
2017-Feb-17 02:00S 27°30' E 086°49'0 0.0 1016.7 23.3
2017-Feb-17 01:00S 27°30' E 086°49'   1016.4 23.3

Dump ship's entire track history